Time;durP1;ratioP1;P1;durP2;ratioP2;P2;SDS_P1;SDS_P2;PMS_P1;PMS_P2;Temp;Humidity;BMP_temperature;BMP_pressure;BME280_temperature;BME280_humidity;BME280_pressure;Samples;Min_cycle;Max_cycle;Signal;HPM_P1;HPM_P2
2023/03/07 00:00:25;;;;;;;8.02;7.47;;;6.90;99.90;;;;;;4210557;28;20051;-54
2023/03/07 00:02:50;;;;;;;9.43;8.70;;;6.90;99.90;;;;;;4211984;28;20077;-54
2023/03/07 00:05:11;;;;;;;8.55;7.88;;;6.90;99.90;;;;;;4212069;28;20043;-54
2023/03/07 00:07:32;;;;;;;7.80;7.25;;;6.90;99.90;;;;;;4213257;28;20110;-54
2023/03/07 00:09:52;;;;;;;8.57;8.18;;;6.90;99.90;;;;;;4211026;28;20255;-54
2023/03/07 00:12:12;;;;;;;8.40;7.85;;;6.90;99.90;;;;;;4212511;28;20086;-54
2023/03/07 00:14:32;;;;;;;10.02;9.55;;;6.90;99.90;;;;;;4208279;28;20090;-54
2023/03/07 00:16:52;;;;;;;10.07;9.38;;;6.90;99.90;;;;;;4181234;28;20045;-53
2023/03/07 00:19:12;;;;;;;8.90;8.40;;;6.80;99.90;;;;;;4225301;28;20396;-54
2023/03/07 00:21:33;;;;;;;9.85;9.07;;;6.80;99.90;;;;;;4210516;28;20392;-54
2023/03/07 00:23:53;;;;;;;8.85;8.02;;;6.70;99.90;;;;;;4210708;28;20052;-54
2023/03/07 00:26:19;;;;;;;8.30;8.00;;;6.70;99.90;;;;;;4208808;28;20047;-54
2023/03/07 00:28:39;;;;;;;8.48;7.90;;;6.70;99.90;;;;;;4207332;28;20047;-54
2023/03/07 00:31:02;;;;;;;7.88;7.57;;;6.70;99.90;;;;;;4209559;28;20043;-54
2023/03/07 00:33:22;;;;;;;7.93;7.53;;;6.60;99.90;;;;;;4210421;28;20365;-54
2023/03/07 00:35:41;;;;;;;8.55;7.43;;;6.60;99.90;;;;;;4209813;28;20296;-54
2023/03/07 00:38:01;;;;;;;8.65;8.35;;;6.60;99.90;;;;;;4208984;28;20059;-54
2023/03/07 00:40:21;;;;;;;9.38;8.98;;;6.50;99.90;;;;;;4209514;28;20051;-54
2023/03/07 00:42:41;;;;;;;8.23;7.72;;;6.50;99.90;;;;;;4211054;28;20063;-54
2023/03/07 00:45:02;;;;;;;8.82;8.48;;;6.40;99.90;;;;;;4209335;28;20040;-54
2023/03/07 00:47:22;;;;;;;8.15;7.65;;;6.50;99.90;;;;;;4205419;28;20086;-54
2023/03/07 00:49:43;;;;;;;7.93;7.45;;;6.40;99.90;;;;;;4211399;28;20231;-54
2023/03/07 00:52:04;;;;;;;9.05;8.70;;;6.40;99.90;;;;;;4207797;28;20094;-54
2023/03/07 00:54:24;;;;;;;9.52;9.02;;;6.30;99.90;;;;;;4205702;28;20086;-54
2023/03/07 00:56:44;;;;;;;7.38;7.15;;;6.30;99.90;;;;;;4207910;28;20086;-54
2023/03/07 00:59:04;;;;;;;8.63;7.88;;;6.30;99.90;;;;;;4178686;28;20052;-54
2023/03/07 01:01:26;;;;;;;8.20;7.82;;;6.30;99.90;;;;;;4208565;28;20063;-54
2023/03/07 01:03:48;;;;;;;8.63;7.22;;;6.30;99.90;;;;;;4221461;28;20039;-54
2023/03/07 01:06:13;;;;;;;7.20;7.00;;;6.20;99.90;;;;;;4208819;28;20047;-54
2023/03/07 01:08:34;;;;;;;7.90;7.65;;;6.20;99.90;;;;;;4207326;28;20067;-54
2023/03/07 01:11:02;;;;;;;6.72;6.43;;;6.20;99.90;;;;;;4209339;28;20102;-54
2023/03/07 01:13:22;;;;;;;6.50;6.32;;;6.20;99.90;;;;;;4206471;28;20083;-54
2023/03/07 01:15:41;;;;;;;8.02;7.43;;;6.20;99.90;;;;;;4208142;28;20048;-54
2023/03/07 01:18:03;;;;;;;7.75;7.35;;;6.20;99.90;;;;;;4209806;28;20039;-54
2023/03/07 01:20:24;;;;;;;8.10;7.80;;;6.30;99.90;;;;;;4209640;28;20052;-53
2023/03/07 01:22:44;;;;;;;7.57;7.05;;;6.40;99.90;;;;;;4206788;28;20085;-54
2023/03/07 01:25:04;;;;;;;7.60;7.10;;;6.50;99.90;;;;;;4207780;28;20043;-54
2023/03/07 01:27:25;;;;;;;6.97;6.45;;;6.50;99.90;;;;;;4210504;28;20044;-54
2023/03/07 01:29:45;;;;;;;7.78;7.68;;;6.50;99.90;;;;;;4207452;28;20094;-54
2023/03/07 01:32:05;;;;;;;8.30;7.75;;;6.50;99.90;;;;;;4206678;28;20043;-54
2023/03/07 01:34:25;;;;;;;7.97;7.60;;;6.60;99.90;;;;;;4208996;28;20052;-54
2023/03/07 01:36:45;;;;;;;7.32;7.20;;;6.60;99.90;;;;;;4210024;28;20047;-54
2023/03/07 01:39:13;;;;;;;7.85;7.22;;;6.60;99.90;;;;;;4207561;28;20047;-54
2023/03/07 01:41:37;;;;;;;8.30;7.63;;;6.60;99.90;;;;;;4208258;28;20419;-54
2023/03/07 01:43:58;;;;;;;6.93;6.82;;;6.60;99.90;;;;;;4211585;28;20043;-54
2023/03/07 01:46:23;;;;;;;7.55;7.13;;;6.70;99.90;;;;;;4207530;28;20278;-54
2023/03/07 01:48:50;;;;;;;6.68;6.47;;;6.70;99.90;;;;;;4206260;28;20370;-54
2023/03/07 01:51:11;;;;;;;7.80;7.50;;;6.60;99.90;;;;;;4208893;28;20050;-54
2023/03/07 01:53:30;;;;;;;6.63;6.40;;;6.60;99.90;;;;;;4208529;28;20216;-53
2023/03/07 01:55:50;;;;;;;7.55;6.70;;;6.50;99.90;;;;;;4208116;28;20249;-54
2023/03/07 01:58:12;;;;;;;6.95;6.68;;;6.40;99.90;;;;;;4207458;28;20111;-54
2023/03/07 02:00:35;;;;;;;6.53;6.37;;;6.40;99.90;;;;;;4208239;28;20055;-54
2023/03/07 02:03:13;;;;;;;8.63;7.75;;;6.30;99.90;;;;;;4207645;28;20056;-54
2023/03/07 02:05:36;;;;;;;6.63;6.25;;;6.30;99.90;;;;;;4209340;28;20147;-54
2023/03/07 02:08:01;;;;;;;6.70;6.30;;;6.30;99.90;;;;;;4208061;28;20274;-54
2023/03/07 02:10:22;;;;;;;6.90;6.70;;;6.40;99.90;;;;;;4208857;28;20055;-54
2023/03/07 02:12:42;;;;;;;6.25;6.15;;;6.40;99.90;;;;;;4207773;28;20062;-54
2023/03/07 02:15:03;;;;;;;5.78;5.43;;;6.50;99.90;;;;;;4204417;28;20401;-54
2023/03/07 02:17:24;;;;;;;7.25;7.05;;;6.50;99.90;;;;;;4206587;28;20052;-54
2023/03/07 02:19:46;;;;;;;8.50;8.20;;;6.50;99.90;;;;;;4205994;28;20040;-54
2023/03/07 02:22:09;;;;;;;7.20;6.80;;;6.50;99.90;;;;;;4218657;28;20054;-54
2023/03/07 02:24:51;;;;;;;8.00;7.70;;;6.50;99.90;;;;;;4207167;28;20082;-54
2023/03/07 02:27:13;;;;;;;8.18;7.50;;;6.50;99.90;;;;;;4207355;28;20079;-54
2023/03/07 02:29:33;;;;;;;8.25;7.78;;;6.50;99.90;;;;;;4191434;28;20067;-54
2023/03/07 02:31:53;;;;;;;7.05;6.85;;;6.50;99.90;;;;;;4204374;28;20075;-54
2023/03/07 02:34:25;;;;;;;6.22;5.93;;;6.50;99.90;;;;;;4207999;28;20108;-54
2023/03/07 02:36:46;;;;;;;6.30;6.10;;;6.40;99.90;;;;;;4203397;28;20051;-55
2023/03/07 02:39:07;;;;;;;7.20;6.78;;;6.40;99.90;;;;;;4207419;28;20043;-54
2023/03/07 02:41:31;;;;;;;8.07;7.68;;;6.40;99.90;;;;;;4204060;28;20090;-54
2023/03/07 02:43:51;;;;;;;8.20;7.63;;;6.30;99.90;;;;;;4205991;28;20051;-54
2023/03/07 02:46:11;;;;;;;8.60;8.18;;;6.30;99.90;;;;;;4207663;28;20090;-54
2023/03/07 02:52:06;;;;;;;7.60;7.10;;;6.30;99.90;;;;;;4211906;28;20353;-54
2023/03/07 02:54:28;;;;;;;8.65;8.13;;;6.30;99.90;;;;;;4206310;28;20370;-54
2023/03/07 02:56:48;;;;;;;8.40;8.20;;;6.30;99.90;;;;;;4207431;28;20247;-53
2023/03/07 02:59:07;;;;;;;8.98;8.57;;;6.30;99.90;;;;;;4205817;28;20110;-54
2023/03/07 03:01:28;;;;;;;8.15;7.85;;;6.30;99.90;;;;;;4205164;28;20120;-54
2023/03/07 03:03:48;;;;;;;8.05;7.57;;;6.30;99.90;;;;;;4207911;28;20059;-54
2023/03/07 03:06:09;;;;;;;8.60;8.07;;;6.30;99.90;;;;;;4220144;28;20077;-54
2023/03/07 03:08:29;;;;;;;9.77;9.20;;;6.40;99.90;;;;;;4208230;28;20243;-54
2023/03/07 03:10:55;;;;;;;9.35;8.55;;;6.30;99.90;;;;;;4206801;28;20090;-54
2023/03/07 03:13:15;;;;;;;9.77;9.27;;;6.30;99.90;;;;;;4209462;28;20043;-54
2023/03/07 03:15:35;;;;;;;10.65;9.93;;;6.30;99.90;;;;;;4204070;28;20102;-54
2023/03/07 03:17:55;;;;;;;10.30;9.82;;;6.20;99.90;;;;;;4206260;28;20051;-53
2023/03/07 03:20:15;;;;;;;10.77;10.13;;;6.20;99.90;;;;;;4210010;28;20055;-53
2023/03/07 03:22:35;;;;;;;10.75;10.32;;;6.20;99.90;;;;;;4208646;28;20082;-54
2023/03/07 03:24:56;;;;;;;9.75;9.25;;;6.20;99.90;;;;;;4208432;28;20039;-54
2023/03/07 03:27:16;;;;;;;10.65;10.15;;;6.10;99.90;;;;;;4207214;28;20446;-54
2023/03/07 03:29:35;;;;;;;11.32;10.55;;;6.10;99.90;;;;;;4208284;28;20047;-54
2023/03/07 03:31:55;;;;;;;10.73;10.13;;;6.10;99.90;;;;;;4208776;28;20063;-54
2023/03/07 03:34:16;;;;;;;9.48;9.18;;;6.10;99.90;;;;;;4208698;28;20043;-54
2023/03/07 03:36:37;;;;;;;11.13;10.25;;;6.10;99.90;;;;;;4205170;28;20048;-54
2023/03/07 03:38:58;;;;;;;11.10;10.50;;;6.00;99.90;;;;;;4207713;28;20446;-54
2023/03/07 03:41:18;;;;;;;12.13;11.35;;;6.00;99.90;;;;;;4206077;28;20141;-54
2023/03/07 03:43:38;;;;;;;11.15;10.65;;;6.00;99.90;;;;;;4206724;28;20048;-54
2023/03/07 03:45:58;;;;;;;12.95;11.98;;;6.00;99.90;;;;;;4205964;28;20090;-54
2023/03/07 03:48:18;;;;;;;11.45;11.00;;;6.00;99.90;;;;;;4206074;28;20060;-54
2023/03/07 03:50:38;;;;;;;11.32;10.50;;;6.00;99.90;;;;;;4206326;28;20081;-54
2023/03/07 03:52:59;;;;;;;11.45;10.52;;;6.00;99.90;;;;;;4205947;28;20048;-54
2023/03/07 03:55:19;;;;;;;10.85;10.38;;;6.00;99.90;;;;;;4205686;28;20071;-54
2023/03/07 03:57:38;;;;;;;9.68;9.18;;;6.00;99.90;;;;;;4206832;28;20094;-55
2023/03/07 03:59:58;;;;;;;10.73;10.13;;;6.00;99.90;;;;;;4207693;28;20085;-54
2023/03/07 04:02:21;;;;;;;10.88;10.27;;;6.00;99.90;;;;;;4210123;28;20234;-54
2023/03/07 04:04:41;;;;;;;9.98;9.40;;;6.00;99.90;;;;;;4210179;28;20262;-53
2023/03/07 04:07:01;;;;;;;11.27;10.20;;;6.00;99.90;;;;;;4208904;28;20051;-54
2023/03/07 04:09:21;;;;;;;9.05;8.55;;;6.00;99.90;;;;;;4209721;28;20039;-54
2023/03/07 04:11:40;;;;;;;13.23;10.82;;;6.00;99.90;;;;;;4208825;28;20075;-54
2023/03/07 04:14:01;;;;;;;9.05;8.65;;;6.00;99.90;;;;;;4209193;28;20437;-54
2023/03/07 04:16:23;;;;;;;10.35;9.20;;;6.00;99.90;;;;;;4208010;28;20094;-54
2023/03/07 04:18:43;;;;;;;;;;;6.00;99.90;;;;;;4209184;28;20385;-53
2023/03/07 04:21:04;;;;;;;13.35;12.32;;;6.00;99.90;;;;;;4209651;28;20270;-54
2023/03/07 04:23:24;;;;;;;9.68;9.43;;;6.00;99.90;;;;;;4210509;28;20075;-54
2023/03/07 04:25:51;;;;;;;9.15;8.95;;;6.00;99.90;;;;;;4209003;28;20269;-54
2023/03/07 04:28:11;;;;;;;9.30;8.90;;;6.00;99.90;;;;;;4210186;28;20070;-54
2023/03/07 04:30:31;;;;;;;10.27;9.40;;;6.00;99.90;;;;;;4209035;28;20086;-53
2023/03/07 04:32:51;;;;;;;9.20;8.75;;;5.90;99.90;;;;;;4208183;28;20043;-54
2023/03/07 04:35:12;;;;;;;10.07;9.35;;;5.90;99.90;;;;;;4209301;28;20044;-54
2023/03/07 04:37:32;;;;;;;8.63;8.32;;;5.90;99.90;;;;;;4211741;28;20043;-54
2023/03/07 04:39:52;;;;;;;10.27;9.73;;;5.90;99.90;;;;;;4208106;28;20039;-54
2023/03/07 04:42:12;;;;;;;8.40;7.88;;;5.80;99.90;;;;;;4208464;28;20048;-53
2023/03/07 04:44:31;;;;;;;8.70;8.10;;;5.80;99.90;;;;;;4209664;28;20270;-54
2023/03/07 04:46:51;;;;;;;9.43;8.80;;;5.80;99.90;;;;;;4215904;28;20275;-54
2023/03/07 04:49:11;;;;;;;10.10;9.70;;;5.80;99.90;;;;;;4208944;28;20081;-54
2023/03/07 04:51:33;;;;;;;10.13;9.45;;;5.70;99.90;;;;;;4206768;28;20158;-54
2023/03/07 04:53:52;;;;;;;9.32;9.02;;;5.70;99.90;;;;;;4210566;28;20418;-54
2023/03/07 04:56:14;;;;;;;10.15;9.70;;;5.70;99.90;;;;;;4210225;28;20082;-54
2023/03/07 04:58:34;;;;;;;9.40;8.93;;;5.70;99.90;;;;;;4208215;28;20085;-54
2023/03/07 05:00:58;;;;;;;9.30;8.85;;;5.70;99.90;;;;;;4208756;28;20096;-54
2023/03/07 05:03:22;;;;;;;9.20;8.85;;;5.80;99.90;;;;;;4208136;28;20147;-54
2023/03/07 05:05:42;;;;;;;9.45;8.25;;;5.80;99.90;;;;;;4209601;28;20058;-54
2023/03/07 05:08:03;;;;;;;10.13;8.98;;;5.70;99.90;;;;;;4207455;28;20074;-54
2023/03/07 05:10:23;;;;;;;8.85;8.38;;;5.80;99.90;;;;;;4206218;28;20108;-54
2023/03/07 05:12:43;;;;;;;10.73;9.77;;;5.80;99.90;;;;;;4207687;28;20052;-54
2023/03/07 05:15:04;;;;;;;10.93;10.27;;;5.80;99.90;;;;;;4208106;28;20082;-54
2023/03/07 05:17:24;;;;;;;8.73;8.27;;;5.80;99.90;;;;;;4208036;28;20090;-54
2023/03/07 05:19:43;;;;;;;10.38;9.40;;;5.80;99.90;;;;;;4208292;28;20362;-54
2023/03/07 05:22:04;;;;;;;9.60;9.18;;;5.80;99.90;;;;;;4209672;28;20366;-53
2023/03/07 05:24:24;;;;;;;8.45;8.15;;;5.70;99.90;;;;;;4208226;28;20082;-54
2023/03/07 05:26:43;;;;;;;9.38;8.77;;;5.60;99.90;;;;;;4207496;28;20067;-54
2023/03/07 05:29:05;;;;;;;9.48;9.07;;;5.50;99.90;;;;;;4209208;28;20075;-54
2023/03/07 05:31:25;;;;;;;8.80;8.02;;;5.30;99.90;;;;;;4209819;28;20051;-54
2023/03/07 05:33:46;;;;;;;11.02;10.40;;;5.40;99.90;;;;;;4207254;28;20047;-54
2023/03/07 05:36:06;;;;;;;10.50;9.45;;;5.50;99.90;;;;;;4207192;28;20246;-54
2023/03/07 05:38:26;;;;;;;9.07;8.85;;;5.40;99.90;;;;;;4210010;28;20097;-54
2023/03/07 05:40:45;;;;;;;11.45;10.80;;;5.40;99.90;;;;;;4210182;28;20086;-55
2023/03/07 05:43:05;;;;;;;11.75;10.93;;;5.30;99.90;;;;;;4192005;28;20123;-54
2023/03/07 05:45:25;;;;;;;11.63;11.13;;;5.40;99.90;;;;;;4209505;28;20054;-54
2023/03/07 05:47:45;;;;;;;12.52;11.32;;;5.30;99.90;;;;;;4212539;28;20077;-53
2023/03/07 05:50:06;;;;;;;11.68;10.70;;;5.30;99.90;;;;;;4207503;28;20044;-55
2023/03/07 05:52:27;;;;;;;10.55;10.05;;;5.30;99.90;;;;;;4206445;28;20067;-54
2023/03/07 05:54:47;;;;;;;12.32;11.23;;;5.20;99.90;;;;;;4210381;28;20081;-54
2023/03/07 05:57:10;;;;;;;11.38;10.55;;;5.30;99.90;;;;;;4206811;28;20265;-54
2023/03/07 05:59:30;;;;;;;12.93;11.75;;;5.40;99.90;;;;;;4209374;28;20047;-54
2023/03/07 06:01:49;;;;;;;11.43;10.48;;;5.50;99.90;;;;;;4207392;28;20055;-53
2023/03/07 06:04:10;;;;;;;10.43;9.70;;;5.50;99.90;;;;;;4207775;28;20222;-54
2023/03/07 06:06:29;;;;;;;12.35;11.00;;;5.50;99.90;;;;;;4209473;28;20090;-54
2023/03/07 06:08:50;;;;;;;13.98;12.32;;;5.40;99.90;;;;;;4208927;28;20048;-54
2023/03/07 06:11:10;;;;;;;13.60;11.93;;;5.50;99.90;;;;;;4208047;28;20050;-54
2023/03/07 06:13:30;;;;;;;14.88;13.57;;;5.50;99.90;;;;;;4206944;28;20064;-54
2023/03/07 06:15:54;;;;;;;13.30;12.25;;;5.50;99.90;;;;;;4210307;28;20071;-54
2023/03/07 06:18:14;;;;;;;12.77;11.68;;;5.50;99.90;;;;;;4209887;28;20047;-54
2023/03/07 06:20:34;;;;;;;13.00;12.05;;;5.40;99.90;;;;;;4206797;28;20217;-54
2023/03/07 06:22:54;;;;;;;12.63;12.00;;;5.30;99.90;;;;;;4208713;28;20399;-54
2023/03/07 06:25:15;;;;;;;12.60;11.35;;;5.30;99.90;;;;;;4196817;28;20047;-54
2023/03/07 06:27:36;;;;;;;13.20;12.02;;;5.20;99.90;;;;;;4205769;28;20077;-54
2023/03/07 06:29:56;;;;;;;15.43;13.95;;;5.40;99.90;;;;;;4207962;28;20043;-54
2023/03/07 06:32:16;;;;;;;13.68;11.05;;;5.50;99.90;;;;;;4207615;28;20042;-54
2023/03/07 06:34:36;;;;;;;12.90;12.00;;;5.60;99.90;;;;;;4206421;28;20043;-54
2023/03/07 06:36:57;;;;;;;13.95;12.63;;;5.70;99.90;;;;;;4205095;28;20102;-55
2023/03/07 06:39:19;;;;;;;12.43;11.27;;;5.80;99.90;;;;;;4205254;28;20043;-54
2023/03/07 06:41:39;;;;;;;13.60;12.65;;;5.90;99.90;;;;;;4207033;28;20083;-54
2023/03/07 06:43:59;;;;;;;13.45;12.15;;;6.00;99.90;;;;;;4207110;28;20093;-54
2023/03/07 06:46:20;;;;;;;14.48;13.43;;;6.10;99.90;;;;;;4205488;28;20112;-54
2023/03/07 06:48:40;;;;;;;13.38;12.35;;;6.10;99.90;;;;;;4207500;28;20090;-54
2023/03/07 06:51:09;;;;;;;17.25;14.18;;;6.20;99.90;;;;;;4206817;28;20059;-54
2023/03/07 06:53:29;;;;;;;13.77;12.63;;;6.20;99.90;;;;;;4206347;28;20079;-54
2023/03/07 06:55:50;;;;;;;12.15;11.32;;;6.10;99.90;;;;;;4206825;28;20067;-54
2023/03/07 06:58:10;;;;;;;14.05;13.13;;;6.10;99.90;;;;;;4206425;28;20055;-54
2023/03/07 07:00:30;;;;;;;15.32;12.43;;;6.10;99.90;;;;;;4207983;28;20040;-55
2023/03/07 07:02:50;;;;;;;16.08;11.82;;;6.10;99.90;;;;;;4206539;28;20374;-54
2023/03/07 07:05:11;;;;;;;11.40;10.75;;;6.10;99.90;;;;;;4222039;28;20043;-54
2023/03/07 07:07:32;;;;;;;13.45;12.68;;;6.10;99.90;;;;;;4209634;28;20113;-54
2023/03/07 07:09:52;;;;;;;13.15;12.23;;;6.10;99.90;;;;;;4207536;28;20078;-54
2023/03/07 07:12:12;;;;;;;12.82;11.82;;;6.20;99.90;;;;;;4208507;28;20043;-54
2023/03/07 07:14:33;;;;;;;13.40;12.00;;;6.10;99.90;;;;;;4206376;28;20044;-56
2023/03/07 07:16:53;;;;;;;12.57;11.73;;;6.10;99.90;;;;;;4209836;28;20075;-55
2023/03/07 07:19:13;;;;;;;12.90;11.73;;;6.10;99.90;;;;;;4205253;28;20083;-55
2023/03/07 07:21:33;;;;;;;13.57;9.73;;;6.30;99.90;;;;;;4205560;28;20051;-54
2023/03/07 07:23:55;;;;;;;10.48;9.52;;;6.50;99.90;;;;;;4207983;28;20093;-54
2023/03/07 07:26:15;;;;;;;11.60;10.38;;;6.70;99.90;;;;;;4210195;28;20238;-55
2023/03/07 07:28:36;;;;;;;9.73;8.88;;;6.90;99.90;;;;;;4205125;28;20385;-55
2023/03/07 07:30:56;;;;;;;9.70;8.93;;;6.90;99.90;;;;;;4205308;28;20090;-54
2023/03/07 07:33:16;;;;;;;9.90;9.10;;;6.90;99.90;;;;;;4207287;28;20047;-58
2023/03/07 07:35:38;;;;;;;10.93;10.43;;;7.00;99.90;;;;;;4226589;28;20043;-54
2023/03/07 07:37:57;;;;;;;10.40;9.85;;;7.10;99.90;;;;;;4209169;28;20122;-54
2023/03/07 07:40:17;;;;;;;10.85;10.30;;;7.30;99.90;;;;;;4209025;28;20063;-54
2023/03/07 07:42:38;;;;;;;10.25;9.70;;;7.30;99.90;;;;;;4210220;28;20043;-54
2023/03/07 07:44:58;;;;;;;10.75;9.95;;;7.40;99.90;;;;;;4209104;28;20071;-55
2023/03/07 07:47:18;;;;;;;8.93;8.38;;;7.50;99.90;;;;;;4209909;28;20055;-54
2023/03/07 07:49:38;;;;;;;11.40;10.52;;;7.60;99.90;;;;;;4209008;28;20043;-54
2023/03/07 07:51:58;;;;;;;8.80;8.25;;;7.70;99.90;;;;;;4209224;28;20046;-55
2023/03/07 07:54:18;;;;;;;12.07;9.80;;;7.70;99.90;;;;;;4209209;28;20369;-55
2023/03/07 07:56:40;;;;;;;10.13;8.65;;;7.70;99.90;;;;;;4209304;28;20047;-54
2023/03/07 07:58:59;;;;;;;10.93;7.53;;;8.00;99.90;;;;;;4207026;28;20043;-55
2023/03/07 08:01:22;;;;;;;9.45;8.70;;;8.10;99.90;;;;;;4209947;28;20048;-55
2023/03/07 08:03:42;;;;;;;7.78;7.22;;;8.20;99.90;;;;;;4208771;28;20043;-55
2023/03/07 08:06:03;;;;;;;9.30;8.43;;;8.20;99.90;;;;;;4208120;28;20362;-55
2023/03/07 08:08:23;;;;;;;7.88;7.18;;;8.30;99.90;;;;;;4208652;28;20035;-55
2023/03/07 08:10:46;;;;;;;7.93;7.47;;;8.40;99.90;;;;;;4206183;28;20116;-55
2023/03/07 08:13:06;;;;;;;9.05;8.40;;;8.40;99.90;;;;;;4209241;28;20282;-55
2023/03/07 08:15:26;;;;;;;9.20;7.72;;;8.50;99.90;;;;;;4208093;28;20098;-55
2023/03/07 08:17:47;;;;;;;7.85;7.18;;;8.50;99.90;;;;;;4209362;28;20038;-55
2023/03/07 08:20:08;;;;;;;9.63;7.72;;;8.70;99.90;;;;;;4191250;28;20256;-55
2023/03/07 08:22:28;;;;;;;8.35;6.47;;;8.90;99.90;;;;;;4209303;28;20043;-54
2023/03/07 08:24:49;;;;;;;8.63;7.90;;;9.00;99.90;;;;;;4206804;28;20048;-55
2023/03/07 08:27:09;;;;;;;6.80;6.20;;;9.00;99.90;;;;;;4211576;28;20089;-54
2023/03/07 08:29:29;;;;;;;7.82;7.30;;;9.10;99.90;;;;;;4207036;28;20100;-54
2023/03/07 08:31:52;;;;;;;7.22;6.53;;;9.10;99.90;;;;;;4210425;28;20081;-54
2023/03/07 08:34:11;;;;;;;8.55;7.68;;;9.00;99.90;;;;;;4208275;28;20047;-55
2023/03/07 08:36:32;;;;;;;8.43;7.68;;;9.00;99.90;;;;;;4207788;28;20059;-55
2023/03/07 08:38:52;;;;;;;7.68;7.40;;;8.80;99.90;;;;;;4206661;28;20074;-56
2023/03/07 08:41:12;;;;;;;9.75;9.15;;;9.00;99.90;;;;;;4210799;28;20120;-55
2023/03/07 08:43:33;;;;;;;7.60;6.80;;;9.10;99.90;;;;;;4208070;28;20074;-54
2023/03/07 08:45:53;;;;;;;7.53;7.03;;;9.20;99.90;;;;;;4208102;28;20040;-55
2023/03/07 08:48:13;;;;;;;7.57;7.13;;;9.40;99.90;;;;;;4209718;28;20246;-55
2023/03/07 08:50:34;;;;;;;8.63;8.00;;;9.30;99.90;;;;;;4212306;28;20051;-54
2023/03/07 08:52:53;;;;;;;7.75;7.13;;;9.50;99.90;;;;;;4221528;28;20108;-55
2023/03/07 08:55:13;;;;;;;8.25;7.20;;;9.70;99.90;;;;;;4207716;28;20098;-55
2023/03/07 08:57:33;;;;;;;7.18;6.63;;;9.70;99.90;;;;;;4210396;28;20079;-55
2023/03/07 08:59:53;;;;;;;9.07;7.35;;;9.80;99.90;;;;;;4206933;28;20366;-55
2023/03/07 09:02:13;;;;;;;10.77;6.05;;;9.90;99.90;;;;;;4207477;28;20050;-55
2023/03/07 09:04:33;;;;;;;8.65;7.18;;;9.80;99.90;;;;;;4209921;28;20047;-55
2023/03/07 09:06:55;;;;;;;8.25;7.63;;;9.50;99.90;;;;;;4207047;28;20063;-55
2023/03/07 09:09:15;;;;;;;8.60;7.85;;;9.70;99.90;;;;;;4206765;28;20039;-54
2023/03/07 09:11:36;;;;;;;7.75;6.88;;;9.90;99.90;;;;;;4208141;28;20086;-55
2023/03/07 09:13:56;;;;;;;12.82;7.93;;;9.70;99.90;;;;;;4208688;28;20043;-55
2023/03/07 09:16:16;;;;;;;7.53;7.07;;;10.00;99.90;;;;;;4208848;28;20120;-55
2023/03/07 09:18:36;;;;;;;7.43;6.68;;;10.20;99.90;;;;;;4210833;28;20063;-55
2023/03/07 09:21:03;;;;;;;7.32;5.78;;;10.00;99.90;;;;;;4205628;28;20243;-54
2023/03/07 09:23:23;;;;;;;8.48;7.07;;;9.90;99.90;;;;;;4209146;28;20082;-55
2023/03/07 09:25:43;;;;;;;7.43;6.68;;;9.90;99.90;;;;;;4215496;28;20143;-55
2023/03/07 09:28:03;;;;;;;6.50;6.25;;;9.90;99.90;;;;;;4206426;28;20048;-55
2023/03/07 09:30:26;;;;;;;7.93;7.18;;;9.40;99.90;;;;;;4205714;28;20054;-54
2023/03/07 09:32:45;;;;;;;9.90;7.68;;;9.30;99.90;;;;;;4207880;28;20054;-54
2023/03/07 09:35:06;;;;;;;9.57;8.57;;;9.60;99.90;;;;;;4208160;28;20047;-54
2023/03/07 09:37:26;;;;;;;6.82;6.40;;;9.60;99.90;;;;;;4205935;28;20116;-54
2023/03/07 09:39:49;;;;;;;8.23;6.88;;;9.80;99.90;;;;;;4208269;28;20043;-56
2023/03/07 09:42:14;;;;;;;9.03;7.30;;;10.00;99.90;;;;;;4208481;28;20059;-55
2023/03/07 09:44:43;;;;;;;5.22;4.93;;;10.20;99.90;;;;;;4208206;28;20056;-55
2023/03/07 09:47:31;;;;;;;5.03;4.68;;;10.40;99.90;;;;;;4207978;28;20385;-59
2023/03/07 09:49:53;;;;;;;4.13;3.75;;;10.50;99.90;;;;;;4209523;28;20071;-59
2023/03/07 09:52:25;;;;;;;4.68;3.97;;;10.60;99.90;;;;;;4208523;28;20108;-59
2023/03/07 09:54:52;;;;;;;5.55;5.05;;;10.70;99.90;;;;;;4205959;28;20063;-59
2023/03/07 09:57:40;;;;;;;4.90;4.50;;;10.60;99.90;;;;;;4218942;28;20254;-59
2023/03/07 10:00:24;;;;;;;5.82;5.53;;;10.60;99.90;;;;;;4207158;28;20083;-59
2023/03/07 10:02:53;;;;;;;5.00;4.78;;;10.50;99.90;;;;;;4209729;28;20055;-59
2023/03/07 10:05:30;;;;;;;5.72;5.43;;;10.40;99.90;;;;;;4206145;28;20454;-59
2023/03/07 10:07:51;;;;;;;6.90;5.65;;;10.40;99.70;;;;;;4208576;28;20130;-59
2023/03/07 10:10:25;;;;;;;5.60;5.40;;;10.40;99.90;;;;;;4207261;28;20067;-59
2023/03/07 10:13:06;;;;;;;7.10;6.80;;;10.50;99.90;;;;;;4208279;28;20040;-59
2023/03/07 10:15:46;;;;;;;11.55;7.65;;;10.60;99.60;;;;;;4206994;28;20035;-59
2023/03/07 10:18:23;;;;;;;8.55;7.47;;;10.50;99.10;;;;;;4209510;28;20046;-59
2023/03/07 10:21:13;;;;;;;6.00;5.53;;;10.60;99.70;;;;;;4211421;28;20365;-59
2023/03/07 10:24:04;;;;;;;9.35;5.00;;;10.60;99.90;;;;;;4194529;28;20068;-59
2023/03/07 10:26:32;;;;;;;6.47;6.05;;;10.60;99.40;;;;;;4209712;28;20083;-59
2023/03/07 10:28:52;;;;;;;5.38;5.03;;;10.70;99.10;;;;;;4210020;28;20337;-59
2023/03/07 10:31:28;;;;;;;4.78;4.47;;;11.20;99.30;;;;;;4204542;28;20047;-59
2023/03/07 10:33:49;;;;;;;4.72;4.43;;;11.60;99.30;;;;;;4208793;28;20120;-59
2023/03/07 10:36:41;;;;;;;4.55;4.25;;;11.70;98.50;;;;;;4211161;28;20059;-59
2023/03/07 10:39:30;;;;;;;5.28;4.85;;;11.90;98.30;;;;;;4206694;28;20047;-59
2023/03/07 10:41:51;;;;;;;4.25;4.15;;;12.00;98.20;;;;;;4207759;28;20369;-59
2023/03/07 10:44:17;;;;;;;4.05;3.92;;;11.70;97.70;;;;;;4209771;28;20077;-59
2023/03/07 10:46:38;;;;;;;4.13;4.03;;;11.60;98.10;;;;;;4207436;28;20054;-59
2023/03/07 10:49:19;;;;;;;5.78;4.88;;;11.90;98.80;;;;;;4205299;28;20074;-59
2023/03/07 10:51:49;;;;;;;5.63;5.13;;;11.80;97.80;;;;;;4206231;28;20422;-59
2023/03/07 10:54:36;;;;;;;6.03;5.53;;;12.00;98.40;;;;;;4206351;28;20043;-59
2023/03/07 10:57:11;;;;;;;3.95;3.85;;;12.10;98.40;;;;;;4206594;28;20055;-59
2023/03/07 10:59:31;;;;;;;5.07;4.65;;;12.00;97.50;;;;;;4205869;28;20055;-59
2023/03/07 11:01:57;;;;;;;4.38;3.88;;;11.60;97.30;;;;;;4206681;28;20082;-59
2023/03/07 11:04:21;;;;;;;5.15;4.85;;;11.30;98.10;;;;;;4206997;28;20104;-59
2023/03/07 11:06:52;;;;;;;5.72;4.28;;;11.10;98.60;;;;;;4206004;28;20154;-59
2023/03/07 11:09:31;;;;;;;4.35;4.00;;;11.20;99.30;;;;;;4205878;28;20052;-60
2023/03/07 11:12:04;;;;;;;4.60;4.13;;;11.60;98.70;;;;;;4206875;28;20067;-59
2023/03/07 11:14:26;;;;;;;4.63;4.40;;;11.60;97.70;;;;;;4206421;28;20067;-59
2023/03/07 11:17:20;;;;;;;3.87;3.77;;;11.90;99.20;;;;;;4207037;28;20055;-59
2023/03/07 11:19:43;;;;;;;4.63;4.32;;;11.80;98.70;;;;;;4203793;28;20336;-59
2023/03/07 11:22:24;;;;;;;4.15;3.85;;;11.50;98.30;;;;;;4206906;28;20273;-59
2023/03/07 11:24:57;;;;;;;4.13;4.00;;;11.30;98.20;;;;;;4205704;28;20035;-59
2023/03/07 11:27:29;;;;;;;4.32;3.92;;;11.30;98.10;;;;;;4206564;28;20074;-59
2023/03/07 11:30:16;;;;;;;4.10;3.90;;;11.10;98.00;;;;;;4207856;28;20254;-59
2023/03/07 11:32:41;;;;;;;4.53;4.35;;;11.20;98.40;;;;;;4207517;28;20409;-59
2023/03/07 11:35:17;;;;;;;5.55;5.25;;;11.20;98.00;;;;;;4206256;28;20373;-59
2023/03/07 11:37:45;;;;;;;6.15;3.58;;;11.20;98.30;;;;;;4207168;28;20098;-59
2023/03/07 11:40:14;;;;;;;3.60;3.50;;;11.10;98.70;;;;;;4205846;28;20082;-59
2023/03/07 11:42:42;;;;;;;4.82;4.47;;;11.10;98.40;;;;;;4206342;28;20240;-59
2023/03/07 11:45:46;;;;;;;5.10;4.70;;;11.30;98.30;;;;;;4206936;28;20090;-59
2023/03/07 11:48:24;;;;;;;5.35;5.15;;;11.60;98.60;;;;;;4207269;28;20062;-59
2023/03/07 11:50:52;;;;;;;4.90;4.53;;;12.10;98.00;;;;;;4206984;28;20051;-59
2023/03/07 11:53:42;;;;;;;5.30;5.03;;;12.30;97.20;;;;;;4206014;28;20240;-59
2023/03/07 11:56:23;;;;;;;10.50;9.20;;;12.60;98.30;;;;;;4207648;28;20085;-59
2023/03/07 11:58:46;;;;;;;4.75;4.30;;;12.70;97.70;;;;;;4205764;28;20060;-59
2023/03/07 12:01:34;;;;;;;4.05;3.80;;;12.50;98.00;;;;;;4206662;28;20361;-58
2023/03/07 12:04:26;;;;;;;3.33;3.08;;;12.60;98.20;;;;;;4207487;28;20043;-60
2023/03/07 12:07:10;;;;;;;4.65;4.53;;;12.40;96.30;;;;;;4208189;28;20040;-59
2023/03/07 12:09:47;;;;;;;4.55;4.35;;;12.40;97.10;;;;;;4206364;28;20071;-60
2023/03/07 12:12:19;;;;;;;4.13;3.92;;;12.20;96.90;;;;;;4207595;28;20273;-59
2023/03/07 12:14:59;;;;;;;3.70;3.20;;;12.10;96.20;;;;;;4206417;28;20079;-59
2023/03/07 12:17:50;;;;;;;4.78;4.57;;;12.20;96.50;;;;;;4203713;28;20052;-59
2023/03/07 12:20:12;;;;;;;5.95;5.40;;;12.10;96.10;;;;;;4205172;28;20043;-59
2023/03/07 12:22:35;;;;;;;4.25;3.88;;;12.10;96.20;;;;;;4208092;28;20060;-59
2023/03/07 12:25:16;;;;;;;4.28;4.05;;;12.20;95.30;;;;;;4208863;28;20062;-59
2023/03/07 12:27:58;;;;;;;3.50;3.20;;;12.10;95.20;;;;;;4209233;28;20052;-59
2023/03/07 12:30:46;;;;;;;4.53;4.22;;;12.20;95.50;;;;;;4207911;28;20044;-59
2023/03/07 12:33:09;;;;;;;4.78;4.57;;;12.20;96.00;;;;;;4207958;28;20066;-59
2023/03/07 12:35:42;;;;;;;4.70;4.55;;;12.20;95.30;;;;;;4210143;28;20063;-59